sensor_id;sensor_type;location;lat;lon;timestamp;temperature;humidity
36444;DHT22;24692;45.642;13.806;2022-09-09T00:04:08;21.40;99.90
36444;DHT22;24692;45.642;13.806;2022-09-09T00:06:59;21.40;99.90
36444;DHT22;24692;45.642;13.806;2022-09-09T00:15:14;21.50;99.90
36444;DHT22;24692;45.642;13.806;2022-09-09T00:20:32;21.50;99.90
36444;DHT22;24692;45.642;13.806;2022-09-09T00:23:24;21.50;99.90
36444;DHT22;24692;45.642;13.806;2022-09-09T00:28:25;21.50;99.90
36444;DHT22;24692;45.642;13.806;2022-09-09T00:30:52;21.50;99.90
36444;DHT22;24692;45.642;13.806;2022-09-09T00:33:20;21.50;99.90
36444;DHT22;24692;45.642;13.806;2022-09-09T00:35:58;21.40;99.90
36444;DHT22;24692;45.642;13.806;2022-09-09T00:38:55;21.50;99.90
36444;DHT22;24692;45.642;13.806;2022-09-09T00:57:27;21.40;99.90
36444;DHT22;24692;45.642;13.806;2022-09-09T01:05:43;21.50;99.90
36444;DHT22;24692;45.642;13.806;2022-09-09T01:10:58;21.60;99.90
36444;DHT22;24692;45.642;13.806;2022-09-09T01:13:27;21.60;99.90
36444;DHT22;24692;45.642;13.806;2022-09-09T01:15:57;21.50;99.90
36444;DHT22;24692;45.642;13.806;2022-09-09T01:18:28;21.50;99.90
36444;DHT22;24692;45.642;13.806;2022-09-09T01:21:33;21.50;99.90
36444;DHT22;24692;45.642;13.806;2022-09-09T01:26:54;21.50;99.90
36444;DHT22;24692;45.642;13.806;2022-09-09T01:29:21;21.40;99.90
36444;DHT22;24692;45.642;13.806;2022-09-09T01:31:58;21.40;99.90
36444;DHT22;24692;45.642;13.806;2022-09-09T01:34:29;21.30;99.90
36444;DHT22;24692;45.642;13.806;2022-09-09T01:37:05;21.20;99.90
36444;DHT22;24692;45.642;13.806;2022-09-09T01:39:33;21.20;99.90
36444;DHT22;24692;45.642;13.806;2022-09-09T01:41:58;21.30;99.90
36444;DHT22;24692;45.642;13.806;2022-09-09T01:44:25;21.30;99.90
36444;DHT22;24692;45.642;13.806;2022-09-09T01:46:52;21.30;99.90
36444;DHT22;24692;45.642;13.806;2022-09-09T01:49:18;21.30;99.90
36444;DHT22;24692;45.642;13.806;2022-09-09T01:51:47;21.30;99.90
36444;DHT22;24692;45.642;13.806;2022-09-09T01:54:14;21.30;99.90
36444;DHT22;24692;45.642;13.806;2022-09-09T01:59:51;21.30;99.90
36444;DHT22;24692;45.642;13.806;2022-09-09T02:02:32;21.30;99.90
36444;DHT22;24692;45.642;13.806;2022-09-09T02:08:00;21.40;99.90
36444;DHT22;24692;45.642;13.806;2022-09-09T02:10:32;21.40;99.90
36444;DHT22;24692;45.642;13.806;2022-09-09T02:13:10;21.40;99.90
36444;DHT22;24692;45.642;13.806;2022-09-09T02:15:59;21.40;99.90
36444;DHT22;24692;45.642;13.806;2022-09-09T02:18:46;21.40;99.90
36444;DHT22;24692;45.642;13.806;2022-09-09T02:21:13;21.30;99.90
36444;DHT22;24692;45.642;13.806;2022-09-09T02:23:42;21.40;99.90
36444;DHT22;24692;45.642;13.806;2022-09-09T02:26:10;21.50;99.90
36444;DHT22;24692;45.642;13.806;2022-09-09T02:28:39;21.60;99.90
36444;DHT22;24692;45.642;13.806;2022-09-09T02:31:06;21.70;99.90
36444;DHT22;24692;45.642;13.806;2022-09-09T02:33:38;21.70;99.90
36444;DHT22;24692;45.642;13.806;2022-09-09T02:36:07;21.60;99.90
36444;DHT22;24692;45.642;13.806;2022-09-09T02:38:38;21.70;99.90
36444;DHT22;24692;45.642;13.806;2022-09-09T02:41:05;21.70;99.90
36444;DHT22;24692;45.642;13.806;2022-09-09T02:43:34;21.70;99.90
36444;DHT22;24692;45.642;13.806;2022-09-09T02:46:07;21.70;99.90
36444;DHT22;24692;45.642;13.806;2022-09-09T02:48:41;21.60;99.90
36444;DHT22;24692;45.642;13.806;2022-09-09T02:54:20;21.50;99.90
36444;DHT22;24692;45.642;13.806;2022-09-09T02:56:53;21.50;99.90
36444;DHT22;24692;45.642;13.806;2022-09-09T02:59:22;21.50;99.90
36444;DHT22;24692;45.642;13.806;2022-09-09T03:01:50;21.40;99.90
36444;DHT22;24692;45.642;13.806;2022-09-09T03:04:16;21.40;99.90
36444;DHT22;24692;45.642;13.806;2022-09-09T03:06:41;21.40;99.90
36444;DHT22;24692;45.642;13.806;2022-09-09T03:09:08;21.30;99.90
36444;DHT22;24692;45.642;13.806;2022-09-09T03:11:36;21.30;99.90
36444;DHT22;24692;45.642;13.806;2022-09-09T03:14:02;21.30;99.90
36444;DHT22;24692;45.642;13.806;2022-09-09T03:16:28;21.30;99.90
36444;DHT22;24692;45.642;13.806;2022-09-09T03:18:54;21.40;99.90
36444;DHT22;24692;45.642;13.806;2022-09-09T03:21:19;21.30;99.90
36444;DHT22;24692;45.642;13.806;2022-09-09T03:23:45;21.30;99.90
36444;DHT22;24692;45.642;13.806;2022-09-09T03:26:11;21.30;99.90
36444;DHT22;24692;45.642;13.806;2022-09-09T03:28:37;21.30;99.90
36444;DHT22;24692;45.642;13.806;2022-09-09T03:31:04;21.20;99.90
36444;DHT22;24692;45.642;13.806;2022-09-09T03:33:30;21.20;99.90
36444;DHT22;24692;45.642;13.806;2022-09-09T03:35:57;21.30;99.90
36444;DHT22;24692;45.642;13.806;2022-09-09T03:38:23;21.30;99.90
36444;DHT22;24692;45.642;13.806;2022-09-09T03:40:51;21.20;99.90
36444;DHT22;24692;45.642;13.806;2022-09-09T03:43:16;21.20;99.90
36444;DHT22;24692;45.642;13.806;2022-09-09T03:45:46;21.20;99.90
36444;DHT22;24692;45.642;13.806;2022-09-09T03:48:16;21.20;99.90
36444;DHT22;24692;45.642;13.806;2022-09-09T03:50:46;21.20;99.90
36444;DHT22;24692;45.642;13.806;2022-09-09T03:53:13;21.20;99.90
36444;DHT22;24692;45.642;13.806;2022-09-09T03:55:39;21.20;99.90
36444;DHT22;24692;45.642;13.806;2022-09-09T03:58:06;21.20;99.90
36444;DHT22;24692;45.642;13.806;2022-09-09T04:00:33;21.20;99.90
36444;DHT22;24692;45.642;13.806;2022-09-09T04:02:59;21.10;99.90
36444;DHT22;24692;45.642;13.806;2022-09-09T04:05:24;21.10;99.90
36444;DHT22;24692;45.642;13.806;2022-09-09T04:07:50;21.10;99.90
36444;DHT22;24692;45.642;13.806;2022-09-09T04:10:16;21.20;99.90
36444;DHT22;24692;45.642;13.806;2022-09-09T04:12:42;21.20;99.90
36444;DHT22;24692;45.642;13.806;2022-09-09T04:15:08;21.20;99.90
36444;DHT22;24692;45.642;13.806;2022-09-09T04:17:34;21.20;99.90
36444;DHT22;24692;45.642;13.806;2022-09-09T04:20:02;21.20;99.90
36444;DHT22;24692;45.642;13.806;2022-09-09T04:22:27;21.20;99.90
36444;DHT22;24692;45.642;13.806;2022-09-09T04:24:53;21.20;99.90
36444;DHT22;24692;45.642;13.806;2022-09-09T04:27:18;21.10;99.90
36444;DHT22;24692;45.642;13.806;2022-09-09T04:29:44;21.00;99.90
36444;DHT22;24692;45.642;13.806;2022-09-09T04:32:10;21.10;99.90
36444;DHT22;24692;45.642;13.806;2022-09-09T04:34:36;21.10;99.90
36444;DHT22;24692;45.642;13.806;2022-09-09T04:37:01;21.10;99.90
36444;DHT22;24692;45.642;13.806;2022-09-09T04:39:27;21.10;99.90
36444;DHT22;24692;45.642;13.806;2022-09-09T04:41:53;21.10;99.90
36444;DHT22;24692;45.642;13.806;2022-09-09T04:44:18;21.10;99.90
36444;DHT22;24692;45.642;13.806;2022-09-09T04:46:44;21.10;99.90
36444;DHT22;24692;45.642;13.806;2022-09-09T04:49:10;21.20;99.90
36444;DHT22;24692;45.642;13.806;2022-09-09T04:51:36;21.20;99.90
36444;DHT22;24692;45.642;13.806;2022-09-09T04:54:01;21.30;99.90
36444;DHT22;24692;45.642;13.806;2022-09-09T04:56:27;21.30;99.90
36444;DHT22;24692;45.642;13.806;2022-09-09T04:58:53;21.30;99.90
36444;DHT22;24692;45.642;13.806;2022-09-09T05:01:21;21.30;99.90
36444;DHT22;24692;45.642;13.806;2022-09-09T05:03:47;21.30;99.90
36444;DHT22;24692;45.642;13.806;2022-09-09T05:06:15;21.30;99.90
36444;DHT22;24692;45.642;13.806;2022-09-09T05:08:42;21.30;99.90
36444;DHT22;24692;45.642;13.806;2022-09-09T05:11:19;21.30;99.90
36444;DHT22;24692;45.642;13.806;2022-09-09T05:13:46;21.30;99.90
36444;DHT22;24692;45.642;13.806;2022-09-09T05:16:12;21.40;99.90
36444;DHT22;24692;45.642;13.806;2022-09-09T05:18:39;21.40;99.90
36444;DHT22;24692;45.642;13.806;2022-09-09T05:21:06;21.40;99.90
36444;DHT22;24692;45.642;13.806;2022-09-09T05:23:36;21.50;99.90
36444;DHT22;24692;45.642;13.806;2022-09-09T05:26:03;21.50;99.90
36444;DHT22;24692;45.642;13.806;2022-09-09T05:28:29;21.50;99.90
36444;DHT22;24692;45.642;13.806;2022-09-09T05:30:59;21.60;99.90
36444;DHT22;24692;45.642;13.806;2022-09-09T05:33:31;21.70;99.90
36444;DHT22;24692;45.642;13.806;2022-09-09T05:36:07;21.80;99.90
36444;DHT22;24692;45.642;13.806;2022-09-09T05:38:34;21.80;99.90
36444;DHT22;24692;45.642;13.806;2022-09-09T05:41:01;21.90;99.90
36444;DHT22;24692;45.642;13.806;2022-09-09T05:43:28;22.00;99.90
36444;DHT22;24692;45.642;13.806;2022-09-09T05:46:08;22.00;99.90
36444;DHT22;24692;45.642;13.806;2022-09-09T05:48:36;22.10;99.90
36444;DHT22;24692;45.642;13.806;2022-09-09T05:51:03;22.20;99.90
36444;DHT22;24692;45.642;13.806;2022-09-09T05:53:29;22.30;99.90
36444;DHT22;24692;45.642;13.806;2022-09-09T05:56:04;22.30;99.90
36444;DHT22;24692;45.642;13.806;2022-09-09T05:58:31;22.40;99.90
36444;DHT22;24692;45.642;13.806;2022-09-09T06:01:05;22.30;99.90
36444;DHT22;24692;45.642;13.806;2022-09-09T06:03:36;22.40;99.90
36444;DHT22;24692;45.642;13.806;2022-09-09T06:06:04;22.50;99.90
36444;DHT22;24692;45.642;13.806;2022-09-09T06:08:37;22.50;99.90
36444;DHT22;24692;45.642;13.806;2022-09-09T06:11:09;22.60;99.90
36444;DHT22;24692;45.642;13.806;2022-09-09T06:13:35;22.60;99.90
36444;DHT22;24692;45.642;13.806;2022-09-09T06:16:03;22.70;99.90
36444;DHT22;24692;45.642;13.806;2022-09-09T06:18:29;22.80;99.90
36444;DHT22;24692;45.642;13.806;2022-09-09T06:20:57;22.80;99.90
36444;DHT22;24692;45.642;13.806;2022-09-09T06:23:23;22.80;99.90
36444;DHT22;24692;45.642;13.806;2022-09-09T06:25:49;22.90;99.90
36444;DHT22;24692;45.642;13.806;2022-09-09T06:28:15;23.10;99.90
36444;DHT22;24692;45.642;13.806;2022-09-09T06:30:41;23.20;99.90
36444;DHT22;24692;45.642;13.806;2022-09-09T06:33:07;23.30;99.90
36444;DHT22;24692;45.642;13.806;2022-09-09T06:35:33;23.50;99.90
36444;DHT22;24692;45.642;13.806;2022-09-09T06:37:58;23.70;99.90
36444;DHT22;24692;45.642;13.806;2022-09-09T06:40:24;24.00;99.90
36444;DHT22;24692;45.642;13.806;2022-09-09T06:42:50;24.30;99.90
36444;DHT22;24692;45.642;13.806;2022-09-09T06:45:17;24.30;99.90
36444;DHT22;24692;45.642;13.806;2022-09-09T06:47:43;24.10;99.90
36444;DHT22;24692;45.642;13.806;2022-09-09T06:50:09;24.00;99.90
36444;DHT22;24692;45.642;13.806;2022-09-09T06:52:36;23.90;99.90
36444;DHT22;24692;45.642;13.806;2022-09-09T06:55:02;23.90;99.90
36444;DHT22;24692;45.642;13.806;2022-09-09T06:57:28;23.90;99.90
36444;DHT22;24692;45.642;13.806;2022-09-09T06:59:53;23.90;99.90
36444;DHT22;24692;45.642;13.806;2022-09-09T07:02:19;24.10;99.90
36444;DHT22;24692;45.642;13.806;2022-09-09T07:04:45;24.10;99.90
36444;DHT22;24692;45.642;13.806;2022-09-09T07:07:11;24.20;99.90
36444;DHT22;24692;45.642;13.806;2022-09-09T07:09:39;24.40;99.90
36444;DHT22;24692;45.642;13.806;2022-09-09T07:12:06;24.50;99.90
36444;DHT22;24692;45.642;13.806;2022-09-09T07:14:32;24.60;99.90
36444;DHT22;24692;45.642;13.806;2022-09-09T07:16:59;24.80;99.90
36444;DHT22;24692;45.642;13.806;2022-09-09T07:19:25;24.90;99.90
36444;DHT22;24692;45.642;13.806;2022-09-09T07:21:51;25.10;99.90
36444;DHT22;24692;45.642;13.806;2022-09-09T07:24:17;25.30;99.90
36444;DHT22;24692;45.642;13.806;2022-09-09T07:26:43;26.10;99.90
36444;DHT22;24692;45.642;13.806;2022-09-09T07:29:09;27.20;99.90
36444;DHT22;24692;45.642;13.806;2022-09-09T07:31:38;27.00;99.90
36444;DHT22;24692;45.642;13.806;2022-09-09T07:34:05;26.70;99.90
36444;DHT22;24692;45.642;13.806;2022-09-09T07:36:33;26.60;99.90
36444;DHT22;24692;45.642;13.806;2022-09-09T07:39:05;26.50;99.90
36444;DHT22;24692;45.642;13.806;2022-09-09T07:41:36;26.50;99.90
36444;DHT22;24692;45.642;13.806;2022-09-09T07:44:10;27.00;99.90
36444;DHT22;24692;45.642;13.806;2022-09-09T07:46:36;27.80;99.90
36444;DHT22;24692;45.642;13.806;2022-09-09T07:49:04;28.70;99.90
36444;DHT22;24692;45.642;13.806;2022-09-09T07:51:32;29.40;99.90
36444;DHT22;24692;45.642;13.806;2022-09-09T07:54:01;30.50;99.90
36444;DHT22;24692;45.642;13.806;2022-09-09T07:56:28;31.60;99.90
36444;DHT22;24692;45.642;13.806;2022-09-09T07:58:56;32.60;99.90
36444;DHT22;24692;45.642;13.806;2022-09-09T08:01:33;33.50;99.90
36444;DHT22;24692;45.642;13.806;2022-09-09T08:04:03;34.30;99.90
36444;DHT22;24692;45.642;13.806;2022-09-09T08:06:33;34.70;99.90
36444;DHT22;24692;45.642;13.806;2022-09-09T08:08:59;35.10;99.90
36444;DHT22;24692;45.642;13.806;2022-09-09T08:11:26;34.90;99.90
36444;DHT22;24692;45.642;13.806;2022-09-09T08:13:52;35.20;99.90
36444;DHT22;24692;45.642;13.806;2022-09-09T08:16:21;34.80;99.90
36444;DHT22;24692;45.642;13.806;2022-09-09T08:18:48;34.10;99.90
36444;DHT22;24692;45.642;13.806;2022-09-09T08:21:23;33.30;99.90
36444;DHT22;24692;45.642;13.806;2022-09-09T08:23:51;33.10;99.90
36444;DHT22;24692;45.642;13.806;2022-09-09T08:26:20;31.90;99.90
36444;DHT22;24692;45.642;13.806;2022-09-09T08:28:50;30.10;99.90
36444;DHT22;24692;45.642;13.806;2022-09-09T08:31:43;28.80;99.90
36444;DHT22;24692;45.642;13.806;2022-09-09T08:34:08;28.30;99.90
36444;DHT22;24692;45.642;13.806;2022-09-09T08:36:43;27.70;99.90
36444;DHT22;24692;45.642;13.806;2022-09-09T08:39:10;27.50;99.90
36444;DHT22;24692;45.642;13.806;2022-09-09T08:52:49;27.20;99.90
36444;DHT22;24692;45.642;13.806;2022-09-09T08:58:09;28.10;99.90
36444;DHT22;24692;45.642;13.806;2022-09-09T09:00:44;28.20;99.90
36444;DHT22;24692;45.642;13.806;2022-09-09T09:03:18;28.00;99.90
36444;DHT22;24692;45.642;13.806;2022-09-09T09:06:06;27.70;99.90
36444;DHT22;24692;45.642;13.806;2022-09-09T09:11:22;27.20;99.90
36444;DHT22;24692;45.642;13.806;2022-09-09T09:14:01;27.10;99.90
36444;DHT22;24692;45.642;13.806;2022-09-09T09:19:14;26.60;99.90
36444;DHT22;24692;45.642;13.806;2022-09-09T09:21:48;26.50;99.90
36444;DHT22;24692;45.642;13.806;2022-09-09T09:24:22;26.20;99.90
36444;DHT22;24692;45.642;13.806;2022-09-09T09:26:49;26.10;99.90
36444;DHT22;24692;45.642;13.806;2022-09-09T09:29:17;25.80;99.90
36444;DHT22;24692;45.642;13.806;2022-09-09T09:31:51;25.70;99.90
36444;DHT22;24692;45.642;13.806;2022-09-09T09:34:18;25.30;99.90
36444;DHT22;24692;45.642;13.806;2022-09-09T09:36:44;24.90;99.90
36444;DHT22;24692;45.642;13.806;2022-09-09T09:39:29;24.50;99.90
36444;DHT22;24692;45.642;13.806;2022-09-09T09:41:55;22.20;99.90
36444;DHT22;24692;45.642;13.806;2022-09-09T09:44:27;20.50;99.90
36444;DHT22;24692;45.642;13.806;2022-09-09T09:46:53;19.50;99.90
36444;DHT22;24692;45.642;13.806;2022-09-09T09:49:30;18.60;99.90
36444;DHT22;24692;45.642;13.806;2022-09-09T09:52:01;18.20;99.90
36444;DHT22;24692;45.642;13.806;2022-09-09T09:54:38;18.10;99.90
36444;DHT22;24692;45.642;13.806;2022-09-09T09:57:15;18.10;99.90
36444;DHT22;24692;45.642;13.806;2022-09-09T09:59:42;18.30;99.90
36444;DHT22;24692;45.642;13.806;2022-09-09T10:02:21;18.30;99.90
36444;DHT22;24692;45.642;13.806;2022-09-09T10:05:00;18.50;99.90
36444;DHT22;24692;45.642;13.806;2022-09-09T10:07:26;18.60;99.90
36444;DHT22;24692;45.642;13.806;2022-09-09T10:09:55;18.80;99.90
36444;DHT22;24692;45.642;13.806;2022-09-09T10:15:31;19.20;99.90
36444;DHT22;24692;45.642;13.806;2022-09-09T10:18:40;19.40;99.90
36444;DHT22;24692;45.642;13.806;2022-09-09T10:30:16;19.70;99.90
36444;DHT22;24692;45.642;13.806;2022-09-09T10:33:04;19.70;99.90
36444;DHT22;24692;45.642;13.806;2022-09-09T10:35:54;19.90;99.90
36444;DHT22;24692;45.642;13.806;2022-09-09T10:38:44;20.40;99.90
36444;DHT22;24692;45.642;13.806;2022-09-09T10:41:19;20.80;99.90
36444;DHT22;24692;45.642;13.806;2022-09-09T10:52:19;22.50;99.90
36444;DHT22;24692;45.642;13.806;2022-09-09T10:55:00;22.40;99.90
36444;DHT22;24692;45.642;13.806;2022-09-09T10:57:38;22.30;99.90
36444;DHT22;24692;45.642;13.806;2022-09-09T11:00:14;22.30;99.90
36444;DHT22;24692;45.642;13.806;2022-09-09T11:02:41;22.70;99.90
36444;DHT22;24692;45.642;13.806;2022-09-09T11:05:22;24.40;99.90
36444;DHT22;24692;45.642;13.806;2022-09-09T11:08:04;25.80;99.90
36444;DHT22;24692;45.642;13.806;2022-09-09T11:16:11;28.10;99.90
36444;DHT22;24692;45.642;13.806;2022-09-09T11:18:41;28.40;99.90
36444;DHT22;24692;45.642;13.806;2022-09-09T11:21:21;28.40;99.90
36444;DHT22;24692;45.642;13.806;2022-09-09T11:23:59;28.30;99.90
36444;DHT22;24692;45.642;13.806;2022-09-09T11:26:32;29.00;99.90
36444;DHT22;24692;45.642;13.806;2022-09-09T11:29:16;29.00;99.90
36444;DHT22;24692;45.642;13.806;2022-09-09T11:31:54;29.20;99.90
36444;DHT22;24692;45.642;13.806;2022-09-09T11:34:43;30.10;99.90
36444;DHT22;24692;45.642;13.806;2022-09-09T11:37:49;30.80;99.90
36444;DHT22;24692;45.642;13.806;2022-09-09T11:40:25;30.70;99.90
36444;DHT22;24692;45.642;13.806;2022-09-09T11:45:36;31.80;99.90
36444;DHT22;24692;45.642;13.806;2022-09-09T11:48:03;30.70;99.90
36444;DHT22;24692;45.642;13.806;2022-09-09T11:50:37;29.90;99.90
36444;DHT22;24692;45.642;13.806;2022-09-09T11:53:16;28.50;99.90
36444;DHT22;24692;45.642;13.806;2022-09-09T11:55:44;28.30;99.90
36444;DHT22;24692;45.642;13.806;2022-09-09T12:00:41;29.80;99.90
36444;DHT22;24692;45.642;13.806;2022-09-09T12:03:38;30.60;99.90
36444;DHT22;24692;45.642;13.806;2022-09-09T12:08:43;32.10;99.90
36444;DHT22;24692;45.642;13.806;2022-09-09T12:11:10;32.90;99.90
36444;DHT22;24692;45.642;13.806;2022-09-09T12:13:36;33.40;99.90
36444;DHT22;24692;45.642;13.806;2022-09-09T12:16:02;33.50;99.90
36444;DHT22;24692;45.642;13.806;2022-09-09T12:18:38;32.90;99.90
36444;DHT22;24692;45.642;13.806;2022-09-09T12:21:35;33.20;99.90
36444;DHT22;24692;45.642;13.806;2022-09-09T12:24:11;33.70;99.90
36444;DHT22;24692;45.642;13.806;2022-09-09T12:26:58;33.80;99.90
36444;DHT22;24692;45.642;13.806;2022-09-09T12:29:36;33.70;99.90
36444;DHT22;24692;45.642;13.806;2022-09-09T12:32:15;33.90;99.90
36444;DHT22;24692;45.642;13.806;2022-09-09T12:34:52;33.70;99.90
36444;DHT22;24692;45.642;13.806;2022-09-09T12:37:54;33.60;99.90
36444;DHT22;24692;45.642;13.806;2022-09-09T12:40:25;33.30;99.90
36444;DHT22;24692;45.642;13.806;2022-09-09T12:42:52;32.70;99.90
36444;DHT22;24692;45.642;13.806;2022-09-09T12:45:20;33.30;99.90
36444;DHT22;24692;45.642;13.806;2022-09-09T12:48:00;32.50;99.90
36444;DHT22;24692;45.642;13.806;2022-09-09T12:50:34;31.70;99.90
36444;DHT22;24692;45.642;13.806;2022-09-09T12:53:25;31.40;99.90
36444;DHT22;24692;45.642;13.806;2022-09-09T12:56:18;31.60;99.90
36444;DHT22;24692;45.642;13.806;2022-09-09T12:58:47;31.20;99.90
36444;DHT22;24692;45.642;13.806;2022-09-09T13:01:42;31.90;99.90
36444;DHT22;24692;45.642;13.806;2022-09-09T13:04:20;31.70;99.90
36444;DHT22;24692;45.642;13.806;2022-09-09T13:06:47;31.80;99.90
36444;DHT22;24692;45.642;13.806;2022-09-09T13:09:14;31.50;99.90
36444;DHT22;24692;45.642;13.806;2022-09-09T13:11:46;32.20;99.90
36444;DHT22;24692;45.642;13.806;2022-09-09T13:14:32;33.00;99.90
36444;DHT22;24692;45.642;13.806;2022-09-09T13:17:01;32.40;99.90
36444;DHT22;24692;45.642;13.806;2022-09-09T13:19:37;32.00;99.90
36444;DHT22;24692;45.642;13.806;2022-09-09T13:22:18;30.60;99.90
36444;DHT22;24692;45.642;13.806;2022-09-09T13:24:45;29.40;99.90
36444;DHT22;24692;45.642;13.806;2022-09-09T13:27:41;28.80;99.90
36444;DHT22;24692;45.642;13.806;2022-09-09T13:30:26;29.80;99.90
36444;DHT22;24692;45.642;13.806;2022-09-09T13:35:48;28.90;99.90
36444;DHT22;24692;45.642;13.806;2022-09-09T13:38:15;28.50;99.90
36444;DHT22;24692;45.642;13.806;2022-09-09T13:40:55;28.40;99.90
36444;DHT22;24692;45.642;13.806;2022-09-09T13:43:24;29.50;99.90
36444;DHT22;24692;45.642;13.806;2022-09-09T13:45:59;30.00;99.90
36444;DHT22;24692;45.642;13.806;2022-09-09T13:48:25;29.10;99.90
36444;DHT22;24692;45.642;13.806;2022-09-09T13:50:55;28.30;99.90
36444;DHT22;24692;45.642;13.806;2022-09-09T13:53:21;28.10;99.90
36444;DHT22;24692;45.642;13.806;2022-09-09T13:55:47;27.80;99.90
36444;DHT22;24692;45.642;13.806;2022-09-09T13:58:17;27.50;99.90
36444;DHT22;24692;45.642;13.806;2022-09-09T14:00:48;27.10;99.90
36444;DHT22;24692;45.642;13.806;2022-09-09T14:03:15;27.20;99.90
36444;DHT22;24692;45.642;13.806;2022-09-09T14:05:41;27.80;99.90
36444;DHT22;24692;45.642;13.806;2022-09-09T14:08:12;27.90;99.90
36444;DHT22;24692;45.642;13.806;2022-09-09T14:10:40;27.90;99.90
36444;DHT22;24692;45.642;13.806;2022-09-09T14:13:06;28.20;99.90
36444;DHT22;24692;45.642;13.806;2022-09-09T14:15:33;29.20;99.90
36444;DHT22;24692;45.642;13.806;2022-09-09T14:17:59;30.90;99.90
36444;DHT22;24692;45.642;13.806;2022-09-09T14:20:24;31.60;99.90
36444;DHT22;24692;45.642;13.806;2022-09-09T14:22:50;31.60;99.90
36444;DHT22;24692;45.642;13.806;2022-09-09T14:25:16;31.20;99.90
36444;DHT22;24692;45.642;13.806;2022-09-09T14:27:42;30.50;99.90
36444;DHT22;24692;45.642;13.806;2022-09-09T14:30:08;29.90;99.90
36444;DHT22;24692;45.642;13.806;2022-09-09T14:32:34;29.30;99.90
36444;DHT22;24692;45.642;13.806;2022-09-09T14:35:00;28.60;99.90
36444;DHT22;24692;45.642;13.806;2022-09-09T14:37:27;28.70;99.90
36444;DHT22;24692;45.642;13.806;2022-09-09T14:39:53;29.30;99.90
36444;DHT22;24692;45.642;13.806;2022-09-09T14:42:19;30.70;99.90
36444;DHT22;24692;45.642;13.806;2022-09-09T14:44:45;32.20;99.90
36444;DHT22;24692;45.642;13.806;2022-09-09T14:47:10;33.00;99.90
36444;DHT22;24692;45.642;13.806;2022-09-09T14:49:37;33.20;99.90
36444;DHT22;24692;45.642;13.806;2022-09-09T14:52:03;32.20;99.90
36444;DHT22;24692;45.642;13.806;2022-09-09T14:54:30;31.60;99.90
36444;DHT22;24692;45.642;13.806;2022-09-09T14:56:56;31.40;99.90
36444;DHT22;24692;45.642;13.806;2022-09-09T14:59:23;32.00;99.90
36444;DHT22;24692;45.642;13.806;2022-09-09T15:01:48;32.20;99.90
36444;DHT22;24692;45.642;13.806;2022-09-09T15:04:14;31.90;99.90
36444;DHT22;24692;45.642;13.806;2022-09-09T15:06:40;31.00;99.90
36444;DHT22;24692;45.642;13.806;2022-09-09T15:09:08;30.30;99.90
36444;DHT22;24692;45.642;13.806;2022-09-09T15:11:36;30.90;99.90
36444;DHT22;24692;45.642;13.806;2022-09-09T15:14:06;31.80;99.90
36444;DHT22;24692;45.642;13.806;2022-09-09T15:16:32;32.60;99.90
36444;DHT22;24692;45.642;13.806;2022-09-09T15:18:59;33.10;99.90
36444;DHT22;24692;45.642;13.806;2022-09-09T15:21:27;32.80;99.90
36444;DHT22;24692;45.642;13.806;2022-09-09T15:23:54;33.20;99.90
36444;DHT22;24692;45.642;13.806;2022-09-09T15:26:20;32.70;99.90
36444;DHT22;24692;45.642;13.806;2022-09-09T15:28:47;32.40;99.90
36444;DHT22;24692;45.642;13.806;2022-09-09T15:31:22;31.40;99.90
36444;DHT22;24692;45.642;13.806;2022-09-09T15:33:52;30.40;99.90
36444;DHT22;24692;45.642;13.806;2022-09-09T15:36:21;29.50;99.90
36444;DHT22;24692;45.642;13.806;2022-09-09T15:38:47;28.70;99.90
36444;DHT22;24692;45.642;13.806;2022-09-09T15:41:14;28.20;99.90
36444;DHT22;24692;45.642;13.806;2022-09-09T15:43:46;27.90;99.90
36444;DHT22;24692;45.642;13.806;2022-09-09T15:46:33;26.50;99.90
36444;DHT22;24692;45.642;13.806;2022-09-09T15:49:17;25.20;99.90
36444;DHT22;24692;45.642;13.806;2022-09-09T15:51:50;24.70;99.90
36444;DHT22;24692;45.642;13.806;2022-09-09T15:54:18;24.60;99.90
36444;DHT22;24692;45.642;13.806;2022-09-09T15:56:44;24.50;99.90
36444;DHT22;24692;45.642;13.806;2022-09-09T15:59:10;24.40;99.90
36444;DHT22;24692;45.642;13.806;2022-09-09T16:01:37;24.50;99.90
36444;DHT22;24692;45.642;13.806;2022-09-09T16:04:05;24.70;99.90
36444;DHT22;24692;45.642;13.806;2022-09-09T16:06:30;25.00;99.90
36444;DHT22;24692;45.642;13.806;2022-09-09T16:08:57;24.90;99.90
36444;DHT22;24692;45.642;13.806;2022-09-09T16:11:25;25.00;99.90
36444;DHT22;24692;45.642;13.806;2022-09-09T16:13:53;24.90;99.90
36444;DHT22;24692;45.642;13.806;2022-09-09T16:16:24;24.90;99.90
36444;DHT22;24692;45.642;13.806;2022-09-09T16:18:53;24.90;99.90
36444;DHT22;24692;45.642;13.806;2022-09-09T16:21:41;24.90;99.90
36444;DHT22;24692;45.642;13.806;2022-09-09T16:24:09;24.80;99.90
36444;DHT22;24692;45.642;13.806;2022-09-09T16:26:36;24.70;99.90
36444;DHT22;24692;45.642;13.806;2022-09-09T16:29:03;24.70;99.90
36444;DHT22;24692;45.642;13.806;2022-09-09T16:31:30;24.60;99.90
36444;DHT22;24692;45.642;13.806;2022-09-09T16:33:59;24.60;99.90
36444;DHT22;24692;45.642;13.806;2022-09-09T16:36:27;24.50;99.90
36444;DHT22;24692;45.642;13.806;2022-09-09T16:38:58;24.40;99.90
36444;DHT22;24692;45.642;13.806;2022-09-09T16:41:24;24.40;99.90
36444;DHT22;24692;45.642;13.806;2022-09-09T16:44:02;24.30;99.90
36444;DHT22;24692;45.642;13.806;2022-09-09T16:46:29;24.20;99.90
36444;DHT22;24692;45.642;13.806;2022-09-09T16:48:59;24.20;99.90
36444;DHT22;24692;45.642;13.806;2022-09-09T16:51:31;24.20;99.90
36444;DHT22;24692;45.642;13.806;2022-09-09T16:54:02;24.10;99.90
36444;DHT22;24692;45.642;13.806;2022-09-09T16:56:30;24.00;99.90
36444;DHT22;24692;45.642;13.806;2022-09-09T16:58:57;24.00;99.90
36444;DHT22;24692;45.642;13.806;2022-09-09T17:01:28;24.00;99.90
36444;DHT22;24692;45.642;13.806;2022-09-09T17:03:59;24.00;99.90
36444;DHT22;24692;45.642;13.806;2022-09-09T17:06:27;23.80;99.90
36444;DHT22;24692;45.642;13.806;2022-09-09T17:09:00;23.60;99.90
36444;DHT22;24692;45.642;13.806;2022-09-09T17:11:27;23.50;99.90
36444;DHT22;24692;45.642;13.806;2022-09-09T17:13:54;23.20;99.90
36444;DHT22;24692;45.642;13.806;2022-09-09T17:16:21;22.90;99.90
36444;DHT22;24692;45.642;13.806;2022-09-09T17:18:51;23.00;99.90
36444;DHT22;24692;45.642;13.806;2022-09-09T17:21:19;23.00;99.90
36444;DHT22;24692;45.642;13.806;2022-09-09T17:23:46;22.90;99.90